createdAt,value
2024-04-21T00:01:22.891Z,41.60
2024-04-21T00:03:50.388Z,41.72
2024-04-21T00:06:17.356Z,41.54
2024-04-21T00:08:44.162Z,41.53
2024-04-21T00:11:11.150Z,41.39
2024-04-21T00:13:38.127Z,41.71
2024-04-21T00:16:05.170Z,41.51
2024-04-21T00:18:32.320Z,41.51
2024-04-21T00:20:59.121Z,41.63
2024-04-21T00:23:25.808Z,41.54
2024-04-21T00:25:59.529Z,41.39
2024-04-21T00:28:26.548Z,41.56
2024-04-21T00:30:53.377Z,41.56
2024-04-21T00:33:20.457Z,41.70
2024-04-21T00:35:47.552Z,41.97
2024-04-21T00:38:15.177Z,42.15
2024-04-21T00:40:42.541Z,42.25
2024-04-21T00:43:10.999Z,42.17
2024-04-21T00:45:47.843Z,41.74
2024-04-21T00:48:15.711Z,41.60
2024-04-21T00:50:47.612Z,41.62
2024-04-21T00:53:17.741Z,41.84
2024-04-21T00:55:44.885Z,41.65
2024-04-21T00:58:14.142Z,41.76
2024-04-21T01:00:42.092Z,41.39
2024-04-21T01:03:08.868Z,41.27
2024-04-21T01:05:35.662Z,41.72
2024-04-21T01:08:02.550Z,41.71
2024-04-21T01:10:29.326Z,41.38
2024-04-21T01:12:56.310Z,41.17
2024-04-21T01:15:26.587Z,41.29
2024-04-21T01:17:56.355Z,41.14
2024-04-21T01:20:23.629Z,41.18
2024-04-21T01:22:50.883Z,40.77
2024-04-21T01:25:18.317Z,40.67
2024-04-21T01:27:45.501Z,40.85
2024-04-21T01:30:12.813Z,40.75
2024-04-21T01:32:40.858Z,40.69
2024-04-21T01:35:08.002Z,40.66
2024-04-21T01:37:36.560Z,40.52
2024-04-21T01:40:07.709Z,40.59
2024-04-21T01:42:34.608Z,40.58
2024-04-21T01:45:01.881Z,40.82
2024-04-21T01:47:28.728Z,40.68
2024-04-21T01:49:57.091Z,40.38
2024-04-21T01:52:27.811Z,40.56
2024-04-21T01:54:54.584Z,40.46
2024-04-21T01:57:25.376Z,40.56
2024-04-21T01:59:55.265Z,40.60
2024-04-21T02:02:24.251Z,40.52
2024-04-21T02:04:51.808Z,40.40
2024-04-21T02:07:19.841Z,40.24
2024-04-21T02:09:46.646Z,40.31
2024-04-21T02:12:13.381Z,40.64
2024-04-21T02:14:40.137Z,40.61
2024-04-21T02:17:07.089Z,40.72
2024-04-21T02:19:34.054Z,40.73
2024-04-21T02:22:02.065Z,40.92
2024-04-21T02:24:40.552Z,41.00
2024-04-21T02:27:10.708Z,41.07
2024-04-21T02:29:37.987Z,41.00
2024-04-21T02:32:07.593Z,41.36
2024-04-21T02:34:36.741Z,41.05
2024-04-21T02:37:03.670Z,41.31
2024-04-21T02:39:30.967Z,41.33
2024-04-21T02:41:57.771Z,41.48
2024-04-21T02:44:24.464Z,41.76
2024-04-21T02:46:51.287Z,41.85
2024-04-21T02:49:18.126Z,41.80
2024-04-21T02:51:44.903Z,41.63
2024-04-21T02:54:11.837Z,41.56
2024-04-21T02:56:38.806Z,41.88
2024-04-21T02:59:05.757Z,41.72
2024-04-21T03:01:32.682Z,42.07
2024-04-21T03:03:59.670Z,42.07
2024-04-21T03:06:26.514Z,41.95
2024-04-21T03:08:56.201Z,42.10
2024-04-21T03:11:23.127Z,42.42
2024-04-21T03:13:49.962Z,42.45
2024-04-21T03:16:24.338Z,42.54
2024-04-21T03:18:51.110Z,42.52
2024-04-21T03:21:18.283Z,42.25
2024-04-21T03:23:45.124Z,42.48
2024-04-21T03:26:17.504Z,42.68
2024-04-21T03:28:46.427Z,42.68
2024-04-21T03:31:13.576Z,42.31
2024-04-21T03:33:45.629Z,42.56
2024-04-21T03:36:12.539Z,42.47
2024-04-21T03:38:39.911Z,42.81
2024-04-21T03:41:10.761Z,42.83
2024-04-21T03:43:38.006Z,42.67
2024-04-21T03:46:04.882Z,42.83
2024-04-21T03:48:37.460Z,43.25
2024-04-21T03:51:04.515Z,43.57
2024-04-21T03:53:31.497Z,43.36
2024-04-21T03:55:58.538Z,43.08
2024-04-21T03:58:25.700Z,43.51
2024-04-21T04:00:52.565Z,43.21
2024-04-21T04:03:19.482Z,43.39
2024-04-21T04:05:47.331Z,43.21
2024-04-21T04:08:14.392Z,43.07
2024-04-21T04:10:44.464Z,43.09
2024-04-21T04:13:11.779Z,43.75
2024-04-21T04:15:39.598Z,43.39
2024-04-21T04:18:06.734Z,43.38
2024-04-21T04:20:36.585Z,43.60
2024-04-21T04:23:05.123Z,43.42
2024-04-21T04:25:31.872Z,43.55
2024-04-21T04:27:58.588Z,43.56
2024-04-21T04:30:25.443Z,43.83
2024-04-21T04:32:52.264Z,43.66
2024-04-21T04:35:19.119Z,43.49
2024-04-21T04:37:45.894Z,43.66
2024-04-21T04:40:12.939Z,43.29
2024-04-21T04:42:39.648Z,43.90
2024-04-21T04:45:06.695Z,43.73
2024-04-21T04:47:33.591Z,43.19
2024-04-21T04:50:00.671Z,43.26
2024-04-21T04:52:27.414Z,43.16
2024-04-21T04:54:54.182Z,43.42
2024-04-21T04:57:20.918Z,43.49
2024-04-21T04:59:47.631Z,43.17
2024-04-21T05:02:14.364Z,43.61
2024-04-21T05:04:41.279Z,43.32
2024-04-21T05:07:09.688Z,43.36
2024-04-21T05:09:37.998Z,43.69
2024-04-21T05:12:05.201Z,43.81
2024-04-21T05:14:31.908Z,43.42
2024-04-21T05:16:58.621Z,43.36
2024-04-21T05:19:25.410Z,43.67
2024-04-21T05:21:52.269Z,43.39
2024-04-21T05:24:19.531Z,43.42
2024-04-21T05:26:46.371Z,43.15
2024-04-21T05:29:13.243Z,43.51
2024-04-21T05:31:43.087Z,43.75
2024-04-21T05:34:09.987Z,43.48
2024-04-21T05:36:36.856Z,43.36
2024-04-21T05:39:03.707Z,43.43
2024-04-21T05:41:30.553Z,43.36
2024-04-21T05:43:57.628Z,43.37
2024-04-21T05:46:24.544Z,43.35
2024-04-21T05:48:51.558Z,43.82
2024-04-21T05:51:18.437Z,43.80
2024-04-21T05:53:45.286Z,43.75
2024-04-21T05:56:12.212Z,43.70
2024-04-21T05:58:39.052Z,43.77
2024-04-21T06:01:05.934Z,43.80
2024-04-21T06:03:32.871Z,43.85
2024-04-21T06:05:59.684Z,43.74
2024-04-21T06:08:26.509Z,43.79
2024-04-21T06:10:57.596Z,43.51
2024-04-21T06:13:25.578Z,43.57
2024-04-21T06:15:52.579Z,43.75
2024-04-21T06:18:19.616Z,43.85
2024-04-21T06:20:46.462Z,43.39
2024-04-21T06:23:13.755Z,43.56
2024-04-21T06:25:40.616Z,43.61
2024-04-21T06:28:07.469Z,43.20
2024-04-21T06:30:34.462Z,43.44
2024-04-21T06:33:01.331Z,43.80
2024-04-21T06:35:28.045Z,43.54
2024-04-21T06:37:54.830Z,43.66
2024-04-21T06:40:21.570Z,43.40
2024-04-21T06:42:49.309Z,43.31
2024-04-21T06:45:16.173Z,42.88
2024-04-21T06:47:42.930Z,43.17
2024-04-21T06:50:09.914Z,43.00
2024-04-21T06:52:36.727Z,43.35
2024-04-21T06:55:03.532Z,43.02
2024-04-21T06:57:30.733Z,42.37
2024-04-21T06:59:57.448Z,42.30
2024-04-21T07:02:24.242Z,41.78
2024-04-21T07:04:50.994Z,41.58
2024-04-21T07:07:18.905Z,41.61
2024-04-21T07:09:45.861Z,41.21
2024-04-21T07:12:12.605Z,41.26
2024-04-21T07:14:39.316Z,41.13
2024-04-21T07:17:06.066Z,40.82
2024-04-21T07:19:32.836Z,41.24
2024-04-21T07:22:00.270Z,40.82
2024-04-21T07:24:27.108Z,40.65
2024-04-21T07:26:54.718Z,40.69
2024-04-21T07:29:23.685Z,40.61
2024-04-21T07:31:50.709Z,40.53
2024-04-21T07:34:17.485Z,40.46
2024-04-21T07:36:44.292Z,40.04
2024-04-21T07:39:11.360Z,40.05
2024-04-21T07:41:41.661Z,39.62
2024-04-21T07:44:08.582Z,39.90
2024-04-21T07:46:35.559Z,40.13
2024-04-21T07:49:03.274Z,39.43
2024-04-21T07:51:30.080Z,38.98
2024-04-21T07:53:57.029Z,39.25
2024-04-21T07:56:23.822Z,39.49
2024-04-21T07:58:53.753Z,38.94
2024-04-21T08:01:20.613Z,38.86
2024-04-21T08:03:53.573Z,37.84
2024-04-21T08:06:20.345Z,38.26
2024-04-21T08:08:50.636Z,38.83
2024-04-21T08:11:20.536Z,38.56
2024-04-21T08:13:47.604Z,38.56
2024-04-21T08:16:14.516Z,38.16
2024-04-21T08:18:43.570Z,38.06
2024-04-21T08:21:10.580Z,37.32
2024-04-21T08:23:37.464Z,38.49
2024-04-21T08:26:05.026Z,37.94
2024-04-21T08:28:31.940Z,37.47
2024-04-21T08:30:58.770Z,37.62
2024-04-21T08:33:27.698Z,38.22
2024-04-21T08:35:55.864Z,37.54
2024-04-21T08:38:24.619Z,38.25
2024-04-21T08:40:52.639Z,38.26
2024-04-21T08:43:26.373Z,37.40
2024-04-21T08:45:55.281Z,37.96
2024-04-21T08:48:27.082Z,37.65
2024-04-21T08:50:56.724Z,38.09
2024-04-21T08:53:24.279Z,37.79
2024-04-21T08:55:51.901Z,37.90
2024-04-21T08:58:20.096Z,37.30
2024-04-21T09:00:47.332Z,38.22
2024-04-21T09:03:17.494Z,38.13
2024-04-21T09:05:45.017Z,38.04
2024-04-21T09:08:11.813Z,37.77
2024-04-21T09:10:38.715Z,38.28
2024-04-21T09:13:05.678Z,38.00
2024-04-21T09:15:33.556Z,38.40
2024-04-21T09:18:01.944Z,37.72
2024-04-21T09:20:29.113Z,37.69
2024-04-21T09:22:55.966Z,38.36
2024-04-21T09:25:24.281Z,38.22
2024-04-21T09:27:51.349Z,37.89
2024-04-21T09:30:19.725Z,38.58
2024-04-21T09:32:47.074Z,38.32
2024-04-21T09:35:14.156Z,38.47
2024-04-21T09:37:48.158Z,37.76
2024-04-21T09:40:16.705Z,38.30
2024-04-21T09:42:45.305Z,37.79
2024-04-21T09:45:14.722Z,38.32
2024-04-21T09:47:43.593Z,38.27
2024-04-21T09:50:12.615Z,38.71
2024-04-21T09:52:40.074Z,38.43
2024-04-21T09:55:07.671Z,38.21
2024-04-21T09:57:35.850Z,38.60
2024-04-21T10:00:10.114Z,38.51
2024-04-21T10:02:39.377Z,38.72
2024-04-21T10:05:13.290Z,38.77
2024-04-21T10:07:44.784Z,38.93
2024-04-21T10:10:21.795Z,38.59
2024-04-21T10:12:49.994Z,39.37
2024-04-21T10:15:19.892Z,39.24
2024-04-21T10:18:04.953Z,38.33
2024-04-21T10:20:38.999Z,38.90
2024-04-21T10:23:11.438Z,38.98
2024-04-21T10:25:45.355Z,39.01
2024-04-21T10:28:14.046Z,38.95
2024-04-21T10:30:41.275Z,39.17
2024-04-21T10:33:11.494Z,38.48
2024-04-21T10:35:40.342Z,38.28
2024-04-21T10:38:15.441Z,37.82
2024-04-21T10:40:46.591Z,38.14
2024-04-21T10:43:13.919Z,38.21
2024-04-21T10:45:40.771Z,38.40
2024-04-21T10:48:09.514Z,37.94
2024-04-21T10:50:38.543Z,38.24
2024-04-21T10:53:06.798Z,37.87
2024-04-21T10:55:36.795Z,37.84
2024-04-21T10:58:08.108Z,37.84
2024-04-21T11:00:39.306Z,38.33
2024-04-21T11:03:07.075Z,38.33
2024-04-21T11:05:43.312Z,37.96
2024-04-21T11:08:10.282Z,38.27
2024-04-21T11:10:37.084Z,38.55
2024-04-21T11:13:07.171Z,37.97
2024-04-21T11:15:40.870Z,37.93
2024-04-21T11:18:10.002Z,38.57
2024-04-21T11:20:37.383Z,38.99
2024-04-21T11:23:04.375Z,38.99
2024-04-21T11:25:31.387Z,38.48
2024-04-21T11:27:58.116Z,39.10
2024-04-21T11:30:26.310Z,38.85
2024-04-21T11:32:53.254Z,38.91
2024-04-21T11:35:20.543Z,39.10
2024-04-21T11:37:53.029Z,38.70
2024-04-21T11:40:21.927Z,38.90
2024-04-21T11:42:48.988Z,39.29
2024-04-21T11:45:29.121Z,38.79
2024-04-21T11:47:57.073Z,39.07
2024-04-21T11:50:25.529Z,39.11
2024-04-21T11:52:52.826Z,39.33
2024-04-21T11:55:19.651Z,39.41
2024-04-21T11:57:46.768Z,39.47
2024-04-21T12:00:14.953Z,39.38
2024-04-21T12:02:41.794Z,39.14
2024-04-21T12:05:08.674Z,39.61
2024-04-21T12:07:35.435Z,39.40
2024-04-21T12:10:02.253Z,39.53
2024-04-21T12:12:29.066Z,39.56
2024-04-21T12:14:55.757Z,39.61
2024-04-21T12:17:23.257Z,39.54
2024-04-21T12:19:51.010Z,39.52
2024-04-21T12:22:18.037Z,39.63
2024-04-21T12:24:44.724Z,39.08
2024-04-21T12:27:11.422Z,39.08
2024-04-21T12:29:38.088Z,39.53
2024-04-21T12:32:05.308Z,39.29
2024-04-21T12:34:32.191Z,39.15
2024-04-21T12:36:58.939Z,39.20
2024-04-21T12:39:26.036Z,39.36
2024-04-21T12:41:53.018Z,39.33
2024-04-21T12:44:19.796Z,39.53
2024-04-21T12:46:49.803Z,39.43
2024-04-21T12:49:16.749Z,39.33
2024-04-21T12:51:47.366Z,39.44
2024-04-21T12:54:16.606Z,39.63
2024-04-21T12:56:44.617Z,39.79
2024-04-21T12:59:11.295Z,39.79
2024-04-21T13:01:38.079Z,39.82
2024-04-21T13:04:05.621Z,39.75
2024-04-21T13:06:32.382Z,39.92
2024-04-21T13:08:59.035Z,40.06
2024-04-21T13:11:25.848Z,40.00
2024-04-21T13:13:53.211Z,40.15
2024-04-21T13:16:19.957Z,40.17
2024-04-21T13:18:46.750Z,40.22
2024-04-21T13:21:13.534Z,40.44
2024-04-21T13:23:42.620Z,40.54
2024-04-21T13:26:09.829Z,40.53
2024-04-21T13:28:36.578Z,40.69
2024-04-21T13:31:03.581Z,40.83
2024-04-21T13:33:30.443Z,40.72
2024-04-21T13:35:57.210Z,40.72
2024-04-21T13:38:23.935Z,40.98
2024-04-21T13:40:50.722Z,40.92
2024-04-21T13:43:17.427Z,40.89
2024-04-21T13:45:44.415Z,41.01
2024-04-21T13:48:11.169Z,40.93
2024-04-21T13:50:37.927Z,41.22
2024-04-21T13:53:04.882Z,41.28
2024-04-21T13:55:31.729Z,41.24
2024-04-21T13:57:58.508Z,41.07
2024-04-21T14:00:25.526Z,41.29
2024-04-21T14:02:52.320Z,41.61
2024-04-21T14:05:19.222Z,41.99
2024-04-21T14:07:45.921Z,42.95
2024-04-21T14:10:12.632Z,42.78
2024-04-21T14:12:39.402Z,43.13
2024-04-21T14:15:06.390Z,42.92
2024-04-21T14:17:33.205Z,43.15
2024-04-21T14:20:00.002Z,43.29
2024-04-21T14:22:26.731Z,42.91
2024-04-21T14:24:53.548Z,43.02
2024-04-21T14:27:20.312Z,42.90
2024-04-21T14:29:50.508Z,42.86
2024-04-21T14:32:19.735Z,42.87
2024-04-21T14:34:46.441Z,42.94
2024-04-21T14:37:13.202Z,42.50
2024-04-21T14:39:39.928Z,42.74
2024-04-21T14:42:06.694Z,42.69
2024-04-21T14:44:37.731Z,42.62
2024-04-21T14:47:05.364Z,42.76
2024-04-21T14:49:32.609Z,42.64
2024-04-21T14:51:59.423Z,42.67
2024-04-21T14:54:26.117Z,42.56
2024-04-21T14:56:54.999Z,42.71
2024-04-21T14:59:23.131Z,42.52
2024-04-21T15:01:49.953Z,42.47
2024-04-21T15:04:18.964Z,42.61
2024-04-21T15:06:46.093Z,42.46
2024-04-21T15:09:12.789Z,42.56
2024-04-21T15:11:39.673Z,42.63
2024-04-21T15:14:06.413Z,42.71
2024-04-21T15:16:36.252Z,42.47
2024-04-21T15:19:04.989Z,42.56
2024-04-21T15:21:31.726Z,42.54
2024-04-21T15:23:58.413Z,42.60
2024-04-21T15:26:25.091Z,42.75
2024-04-21T15:28:51.788Z,42.36
2024-04-21T15:31:18.599Z,42.59
2024-04-21T15:33:45.626Z,43.70
2024-04-21T15:36:14.312Z,44.16
2024-04-21T15:38:41.094Z,44.80
2024-04-21T15:41:08.512Z,44.20
2024-04-21T15:43:35.364Z,44.61
2024-04-21T15:46:02.360Z,44.15
2024-04-21T15:48:32.225Z,44.02
2024-04-21T15:50:59.005Z,43.82
2024-04-21T15:53:25.710Z,43.92
2024-04-21T15:55:52.565Z,43.35
2024-04-21T15:58:19.522Z,42.95
2024-04-21T16:00:47.248Z,43.23
2024-04-21T16:03:14.052Z,43.28
2024-04-21T16:05:42.645Z,43.13
2024-04-21T16:08:09.786Z,43.12
2024-04-21T16:10:36.712Z,42.80
2024-04-21T16:13:03.629Z,43.11
2024-04-21T16:15:30.428Z,43.37
2024-04-21T16:17:57.195Z,43.41
2024-04-21T16:20:24.023Z,43.56
2024-04-21T16:22:50.803Z,43.43
2024-04-21T16:25:17.711Z,43.36
2024-04-21T16:27:46.586Z,43.51
2024-04-21T16:30:13.464Z,43.64
2024-04-21T16:32:42.282Z,43.71
2024-04-21T16:35:10.303Z,43.48
2024-04-21T16:37:37.293Z,43.70
2024-04-21T16:40:04.475Z,43.49
2024-04-21T16:42:31.587Z,43.75
2024-04-21T16:44:58.720Z,43.61
2024-04-21T16:47:30.246Z,43.81
2024-04-21T16:49:57.707Z,43.85
2024-04-21T16:52:24.801Z,44.45
2024-04-21T16:54:51.814Z,44.25
2024-04-21T16:57:26.161Z,45.39
2024-04-21T16:59:53.255Z,44.75
2024-04-21T17:02:20.485Z,44.87
2024-04-21T17:04:49.223Z,45.18
2024-04-21T17:07:20.070Z,44.83
2024-04-21T17:09:49.478Z,44.36
2024-04-21T17:12:19.751Z,44.53
2024-04-21T17:14:46.579Z,44.51
2024-04-21T17:17:13.589Z,44.47
2024-04-21T17:19:40.384Z,44.31
2024-04-21T17:22:07.257Z,44.24
2024-04-21T17:24:34.033Z,44.18
2024-04-21T17:27:00.799Z,44.33
2024-04-21T17:29:27.473Z,44.17
2024-04-21T17:31:54.182Z,43.95
2024-04-21T17:34:20.935Z,44.38
2024-04-21T17:36:47.634Z,44.31
2024-04-21T17:39:14.382Z,43.86
2024-04-21T17:41:41.187Z,44.22
2024-04-21T17:44:07.937Z,44.12
2024-04-21T17:46:37.960Z,44.21
2024-04-21T17:49:04.763Z,44.37
2024-04-21T17:51:32.440Z,44.22
2024-04-21T17:53:59.136Z,44.09
2024-04-21T17:56:25.830Z,44.23
2024-04-21T17:58:52.502Z,44.37
2024-04-21T18:01:19.499Z,44.41
2024-04-21T18:04:52.857Z,45.33
2024-04-21T18:07:19.626Z,45.48
2024-04-21T18:09:46.273Z,45.05
2024-04-21T18:12:12.937Z,45.12
2024-04-21T18:14:39.528Z,45.62
2024-04-21T18:17:13.746Z,45.06
2024-04-21T18:19:48.549Z,45.16
2024-04-21T18:22:16.521Z,45.60
2024-04-21T18:24:43.477Z,45.11
2024-04-21T18:27:10.091Z,45.58
2024-04-21T18:29:36.682Z,45.22
2024-04-21T18:32:03.318Z,45.19
2024-04-21T18:34:29.986Z,45.30
2024-04-21T18:36:58.283Z,45.34
2024-04-21T18:39:26.318Z,45.54
2024-04-21T18:41:52.883Z,45.42
2024-04-21T18:44:19.449Z,45.41
2024-04-21T18:46:46.205Z,45.51
2024-04-21T18:49:12.883Z,45.16
2024-04-21T18:51:39.821Z,45.46
2024-04-21T18:54:07.504Z,45.41
2024-04-21T18:56:34.174Z,45.34
2024-04-21T18:59:00.855Z,45.58
2024-04-21T19:01:27.509Z,45.32
2024-04-21T19:03:54.177Z,45.48
2024-04-21T19:06:20.750Z,45.55
2024-04-21T19:08:47.365Z,45.48
2024-04-21T19:11:14.088Z,45.33
2024-04-21T19:13:41.328Z,45.40
2024-04-21T19:16:08.863Z,45.67
2024-04-21T19:18:35.839Z,45.50
2024-04-21T19:21:03.133Z,45.52
2024-04-21T19:23:29.849Z,45.40
2024-04-21T19:25:56.635Z,45.60
2024-04-21T19:28:23.549Z,45.26
2024-04-21T19:30:50.200Z,45.43
2024-04-21T19:33:16.861Z,45.91
2024-04-21T19:35:43.475Z,45.91
2024-04-21T19:38:10.021Z,45.94
2024-04-21T19:40:36.766Z,46.04
2024-04-21T19:43:05.315Z,46.08
2024-04-21T19:45:34.698Z,45.80
2024-04-21T19:48:01.418Z,46.10
2024-04-21T19:50:30.520Z,46.08
2024-04-21T19:52:57.139Z,45.96
2024-04-21T19:55:25.043Z,46.07
2024-04-21T19:57:51.640Z,45.79
2024-04-21T20:00:19.034Z,45.95
2024-04-21T20:02:45.659Z,45.75
2024-04-21T20:05:12.334Z,45.83
2024-04-21T20:07:39.131Z,45.86
2024-04-21T20:10:05.971Z,45.95
2024-04-21T20:12:32.756Z,45.79
2024-04-21T20:15:18.095Z,45.88
2024-04-21T20:18:03.024Z,45.95
2024-04-21T20:20:29.651Z,46.01
2024-04-21T20:22:56.971Z,45.83
2024-04-21T20:25:23.667Z,45.93
2024-04-21T20:27:50.323Z,45.95
2024-04-21T20:30:16.958Z,45.95
2024-04-21T20:32:43.681Z,45.76
2024-04-21T20:35:10.250Z,45.91
2024-04-21T20:37:36.907Z,45.83
2024-04-21T20:40:04.193Z,46.00
2024-04-21T20:42:30.845Z,46.00
2024-04-21T20:44:57.468Z,45.95
2024-04-21T20:47:24.111Z,45.96
2024-04-21T20:49:50.765Z,46.34
2024-04-21T20:52:17.383Z,46.28
2024-04-21T20:54:45.720Z,45.89
2024-04-21T20:57:12.297Z,46.09
2024-04-21T20:59:38.848Z,46.14
2024-04-21T21:02:05.637Z,46.38
2024-04-21T21:04:32.317Z,45.73
2024-04-21T21:06:58.906Z,46.05
2024-04-21T21:09:25.481Z,45.82
2024-04-21T21:11:52.089Z,45.90
2024-04-21T21:14:18.665Z,45.70
2024-04-21T21:16:45.347Z,45.83
2024-04-21T21:19:14.741Z,45.87
2024-04-21T21:21:41.323Z,45.67
2024-04-21T21:24:09.011Z,45.63
2024-04-21T21:26:35.593Z,45.54
2024-04-21T21:29:02.192Z,45.70
2024-04-21T21:31:28.800Z,45.59
2024-04-21T21:33:55.498Z,45.37
2024-04-21T21:36:22.376Z,45.45
2024-04-21T21:38:48.981Z,45.17
2024-04-21T21:41:15.628Z,45.00
2024-04-21T21:43:42.348Z,45.35
2024-04-21T21:46:08.964Z,45.33
2024-04-21T21:48:35.660Z,45.11
2024-04-21T21:51:02.235Z,45.33
2024-04-21T21:53:28.859Z,45.34
2024-04-21T21:55:55.454Z,45.10
2024-04-21T21:58:22.159Z,44.84
2024-04-21T22:00:50.718Z,45.01
2024-04-21T22:03:17.329Z,44.79
2024-04-21T22:05:43.917Z,45.06
2024-04-21T22:08:10.623Z,44.91
2024-04-21T22:10:37.226Z,44.79
2024-04-21T22:13:03.879Z,44.66
2024-04-21T22:15:30.540Z,44.90
2024-04-21T22:17:57.515Z,45.02
2024-04-21T22:20:24.234Z,44.75
2024-04-21T22:22:52.698Z,44.51
2024-04-21T22:25:19.811Z,44.73
2024-04-21T22:27:46.727Z,44.44
2024-04-21T22:30:13.292Z,44.78
2024-04-21T22:32:40.432Z,44.34
2024-04-21T22:35:07.357Z,44.45
2024-04-21T22:37:34.078Z,44.57
2024-04-21T22:40:00.860Z,44.77
2024-04-21T22:42:28.048Z,44.49
2024-04-21T22:44:54.628Z,44.48
2024-04-21T22:47:21.384Z,44.40
2024-04-21T22:49:51.839Z,44.44
2024-04-21T22:52:18.434Z,44.35
2024-04-21T22:54:45.038Z,44.37
2024-04-21T22:57:11.594Z,44.09
2024-04-21T22:59:38.186Z,44.27
2024-04-21T23:02:05.487Z,44.21
2024-04-21T23:04:32.406Z,44.46
2024-04-21T23:06:59.038Z,44.27
2024-04-21T23:09:25.600Z,44.25
2024-04-21T23:11:52.224Z,44.66
2024-04-21T23:14:18.840Z,44.43
2024-04-21T23:16:45.427Z,44.00
2024-04-21T23:19:12.055Z,44.08
2024-04-21T23:21:38.647Z,44.01
2024-04-21T23:24:05.319Z,44.25
2024-04-21T23:26:31.904Z,44.13
2024-04-21T23:28:58.546Z,44.16
2024-04-21T23:31:27.232Z,44.50
2024-04-21T23:33:54.419Z,44.11
2024-04-21T23:36:21.011Z,44.00
2024-04-21T23:38:47.609Z,44.26
2024-04-21T23:41:14.144Z,44.13
2024-04-21T23:43:40.736Z,44.28
2024-04-21T23:46:08.796Z,44.37
2024-04-21T23:48:35.551Z,44.15
2024-04-21T23:51:02.139Z,44.12
2024-04-21T23:53:28.698Z,44.06
2024-04-21T23:55:55.237Z,44.35
2024-04-21T23:58:21.867Z,43.85
